Time;durP1;ratioP1;P1;durP2;ratioP2;P2;SDS_P1;SDS_P2;PMS_P1;PMS_P2;Temp;Humidity;BMP_temperature;BMP_pressure;BME280_temperature;BME280_humidity;BME280_pressure;Samples;Min_cycle;Max_cycle;Signal;HPM_P1;HPM_P2
2022/01/16 00:04:06;;;;;;;22.05;11.60;;;3.40;99.90;;;;;;5022423;28;20365;-83
2022/01/16 00:06:35;;;;;;;23.80;12.38;;;3.40;99.90;;;;;;5018754;28;20744;-85
2022/01/16 00:09:01;;;;;;;24.63;11.90;;;3.50;99.90;;;;;;5015548;28;20513;-84
2022/01/16 00:11:27;;;;;;;26.05;13.63;;;3.50;99.90;;;;;;5017833;28;20421;-84
2022/01/16 00:13:53;;;;;;;29.50;14.48;;;3.50;99.90;;;;;;5016337;28;20393;-85
2022/01/16 00:16:19;;;;;;;22.10;13.63;;;3.50;99.90;;;;;;5022748;28;20404;-84
2022/01/16 00:19:04;;;;;;;24.60;14.07;;;3.50;99.90;;;;;;5024714;28;20397;-85
2022/01/16 00:21:39;;;;;;;27.53;14.90;;;3.50;99.90;;;;;;5021944;28;20870;-83
2022/01/16 00:24:05;;;;;;;25.20;14.05;;;3.50;99.90;;;;;;5015156;28;20394;-85
2022/01/16 00:26:32;;;;;;;25.52;14.60;;;3.60;99.90;;;;;;5013951;28;20541;-83
2022/01/16 00:28:58;;;;;;;30.37;15.43;;;3.60;99.90;;;;;;4998177;28;20454;-85
2022/01/16 00:31:24;;;;;;;24.70;14.50;;;3.60;99.90;;;;;;5024384;28;20386;-84
2022/01/16 00:33:50;;;;;;;30.25;17.02;;;3.60;99.90;;;;;;5018130;28;20867;-85
2022/01/16 00:36:18;;;;;;;28.83;15.45;;;3.60;99.90;;;;;;5014246;28;20391;-84
2022/01/16 00:38:46;;;;;;;27.55;14.70;;;3.50;99.90;;;;;;5017811;28;20398;-84
2022/01/16 00:41:14;;;;;;;26.55;14.48;;;3.50;99.90;;;;;;5018956;28;20461;-85
2022/01/16 00:43:40;;;;;;;31.17;14.98;;;3.40;99.90;;;;;;5023934;28;20391;-84
2022/01/16 00:46:06;;;;;;;26.52;14.85;;;3.40;99.90;;;;;;5026799;28;20373;-84
2022/01/16 00:48:32;;;;;;;28.50;14.57;;;3.40;99.90;;;;;;5025085;28;20404;-84
2022/01/16 00:51:00;;;;;;;24.77;14.48;;;3.40;99.90;;;;;;5026872;28;20890;-85
2022/01/16 00:53:26;;;;;;;25.85;14.77;;;3.40;99.90;;;;;;5027619;28;20739;-83
2022/01/16 00:55:51;;;;;;;33.77;16.67;;;3.40;99.90;;;;;;5029132;28;20539;-83
2022/01/16 00:58:17;;;;;;;29.52;16.70;;;3.50;99.90;;;;;;5028510;28;20388;-84
2022/01/16 01:00:42;;;;;;;33.15;16.60;;;3.40;99.90;;;;;;5028229;28;20416;-83
2022/01/16 01:03:08;;;;;;;26.73;16.25;;;3.40;99.90;;;;;;5027095;28;20377;-84
2022/01/16 01:05:36;;;;;;;27.25;15.70;;;3.40;99.90;;;;;;5027464;28;20394;-85
2022/01/16 01:08:04;;;;;;;29.27;14.90;;;3.40;99.90;;;;;;5027799;28;20384;-85
2022/01/16 01:10:36;;;;;;;27.17;15.15;;;3.40;99.90;;;;;;5027719;28;20389;-83
2022/01/16 01:13:55;;;;;;;28.65;15.20;;;3.40;99.90;;;;;;5027528;28;20461;-84
2022/01/16 01:16:02;;;;;;;25.83;15.23;;;3.30;99.90;;;;;;5030415;28;20394;-84
2022/01/16 01:18:32;;;;;;;26.40;15.40;;;3.20;99.90;;;;;;5027240;28;20870;-84
2022/01/16 01:20:59;;;;;;;27.63;15.70;;;3.20;99.90;;;;;;5029094;28;20477;-84
2022/01/16 01:23:25;;;;;;;29.48;16.00;;;3.20;99.90;;;;;;5027773;28;20472;-84
2022/01/16 01:25:55;;;;;;;30.43;15.80;;;3.30;99.90;;;;;;5029009;28;20906;-84
2022/01/16 01:28:20;;;;;;;29.30;16.70;;;3.30;99.90;;;;;;5030480;28;20374;-83
2022/01/16 01:30:46;;;;;;;25.60;16.20;;;3.30;99.90;;;;;;5029219;28;20404;-85
2022/01/16 01:33:13;;;;;;;31.30;18.13;;;3.30;99.90;;;;;;5029182;28;20903;-84
2022/01/16 01:35:40;;;;;;;31.45;18.65;;;3.30;99.90;;;;;;5027686;28;20899;-81
2022/01/16 01:38:07;;;;;;;31.15;18.45;;;3.30;99.90;;;;;;5028782;28;20378;-84
2022/01/16 01:40:33;;;;;;;31.33;19.50;;;3.30;99.90;;;;;;5026404;28;20885;-84
2022/01/16 01:51:16;;;;;;;34.65;20.42;;;3.40;99.90;;;;;;5026379;28;20408;-84
2022/01/16 01:53:43;;;;;;;32.08;20.40;;;3.40;99.90;;;;;;5026320;28;20390;-83
2022/01/16 01:56:11;;;;;;;33.47;21.23;;;3.40;99.90;;;;;;5028520;28;20390;-83
2022/01/16 01:58:38;;;;;;;28.30;19.07;;;3.30;99.90;;;;;;5028101;28;20497;-83
2022/01/16 02:01:04;;;;;;;34.28;20.23;;;3.30;99.90;;;;;;5027509;28;20417;-82
2022/01/16 02:05:57;;;;;;;29.63;19.63;;;3.30;99.90;;;;;;5027481;28;20393;-82
2022/01/16 02:08:23;;;;;;;33.38;20.17;;;3.30;99.90;;;;;;5026746;28;20404;-83
2022/01/16 02:10:49;;;;;;;28.95;18.55;;;3.30;99.90;;;;;;5026741;28;20389;-83
2022/01/16 02:13:28;;;;;;;26.87;19.67;;;3.20;99.90;;;;;;5026083;28;20476;-82
2022/01/16 02:34:41;;;;;;;31.37;19.07;;;2.40;99.90;;;;;;5027472;28;20820;-83
2022/01/16 02:37:13;;;;;;;32.85;18.67;;;2.30;99.90;;;;;;5025856;28;20393;-83
2022/01/16 02:39:42;;;;;;;33.75;18.90;;;2.30;99.90;;;;;;5026249;28;20390;-83
2022/01/16 02:42:11;;;;;;;29.83;17.80;;;2.10;99.90;;;;;;5025312;28;20499;-83
2022/01/16 02:44:48;;;;;;;29.33;17.55;;;2.10;99.90;;;;;;5026068;28;20424;-83
2022/01/16 02:47:29;;;;;;;30.98;17.38;;;2.00;99.90;;;;;;5026533;28;20397;-84
2022/01/16 02:49:55;;;;;;;30.15;16.85;;;1.90;99.90;;;;;;5025859;28;20800;-83
2022/01/16 02:52:21;;;;;;;31.63;17.58;;;1.80;99.90;;;;;;5026703;28;20434;-82
2022/01/16 02:54:49;;;;;;;31.80;16.88;;;1.80;99.90;;;;;;5025511;28;20389;-84
2022/01/16 02:57:18;;;;;;;29.00;16.10;;;1.80;99.90;;;;;;5025160;28;20456;-83
2022/01/16 02:59:49;;;;;;;30.20;16.55;;;1.70;99.90;;;;;;5026790;28;20879;-83
2022/01/16 03:02:17;;;;;;;30.33;15.73;;;1.60;99.90;;;;;;5026110;28;20459;-83
2022/01/16 03:04:44;;;;;;;29.27;15.60;;;1.60;99.90;;;;;;5026358;28;20398;-83
2022/01/16 03:07:10;;;;;;;31.33;15.30;;;1.50;99.90;;;;;;5012679;28;20821;-82
2022/01/16 03:10:05;;;;;;;29.40;14.82;;;1.50;99.90;;;;;;5025760;28;20579;-83
2022/01/16 03:12:26;;;;;;;29.98;14.82;;;1.40;99.90;;;;;;5006714;28;20388;-83
2022/01/16 03:14:51;;;;;;;32.83;15.90;;;1.40;99.90;;;;;;5017755;28;20381;-82
2022/01/16 03:17:34;;;;;;;27.77;14.25;;;1.40;99.90;;;;;;5024533;28;20390;-82
2022/01/16 03:22:43;;;;;;;26.63;14.90;;;1.30;99.90;;;;;;5026676;28;20420;-82
2022/01/16 03:25:09;;;;;;;31.15;15.27;;;1.30;99.90;;;;;;5025185;28;20907;-82
2022/01/16 03:27:36;;;;;;;34.95;15.18;;;1.20;99.90;;;;;;5026255;28;21141;-82
2022/01/16 03:30:03;;;;;;;32.15;15.23;;;1.20;99.90;;;;;;5025598;28;20378;-83
2022/01/16 03:32:28;;;;;;;27.70;14.30;;;1.20;99.90;;;;;;5025486;28;20405;-83
2022/01/16 03:34:55;;;;;;;28.53;14.33;;;1.20;99.90;;;;;;5025839;28;20393;-83
2022/01/16 03:37:21;;;;;;;29.38;14.18;;;1.10;99.90;;;;;;5026238;27;20414;-82
2022/01/16 03:39:46;;;;;;;33.00;14.77;;;1.10;99.90;;;;;;5025451;28;20464;-83
2022/01/16 03:42:12;;;;;;;33.08;15.88;;;1.10;99.90;;;;;;5025185;28;20459;-82
2022/01/16 03:44:38;;;;;;;29.70;15.10;;;1.10;99.90;;;;;;5026509;28;20799;-82
2022/01/16 03:47:04;;;;;;;34.13;13.85;;;1.10;99.90;;;;;;5025836;28;20397;-83
2022/01/16 03:49:31;;;;;;;30.27;13.98;;;1.00;99.90;;;;;;5025474;28;20426;-82
2022/01/16 03:51:57;;;;;;;27.58;14.20;;;1.00;99.90;;;;;;5028621;28;20388;-83
2022/01/16 03:54:27;;;;;;;29.35;13.98;;;1.00;99.90;;;;;;5027130;28;20388;-83
2022/01/16 03:56:54;;;;;;;32.63;14.25;;;1.00;99.90;;;;;;5026269;28;20473;-82
2022/01/16 03:59:20;;;;;;;33.90;14.70;;;0.90;99.90;;;;;;5024413;28;20409;-82
2022/01/16 04:01:46;;;;;;;30.20;14.18;;;0.90;99.90;;;;;;5024558;28;20436;-84
2022/01/16 04:04:12;;;;;;;32.08;14.60;;;0.80;99.90;;;;;;5024718;28;20401;-83
2022/01/16 04:06:39;;;;;;;35.25;14.05;;;0.80;99.90;;;;;;5024493;28;20412;-83
2022/01/16 04:09:05;;;;;;;31.27;14.30;;;0.80;99.90;;;;;;5026278;28;20381;-83
2022/01/16 04:11:31;;;;;;;29.60;14.07;;;0.80;99.90;;;;;;5024770;28;20435;-84
2022/01/16 04:14:09;;;;;;;34.97;14.53;;;0.80;99.90;;;;;;5024800;28;20906;-83
2022/01/16 04:16:36;;;;;;;30.92;14.23;;;0.70;99.90;;;;;;5024654;28;20412;-83
2022/01/16 04:19:02;;;;;;;25.52;13.20;;;0.70;99.90;;;;;;5024014;28;20398;-83
2022/01/16 04:21:29;;;;;;;35.22;14.23;;;0.70;99.90;;;;;;5023696;28;20496;-83
2022/01/16 04:23:55;;;;;;;30.33;13.68;;;0.70;99.90;;;;;;5024016;28;20492;-83
2022/01/16 04:26:23;;;;;;;33.63;14.40;;;0.70;99.90;;;;;;5025099;28;20717;-83
2022/01/16 04:28:49;;;;;;;32.88;13.52;;;0.70;99.90;;;;;;5023854;28;20469;-83
2022/01/16 04:31:16;;;;;;;32.17;13.20;;;0.70;99.90;;;;;;5024527;28;20378;-83
2022/01/16 04:33:42;;;;;;;30.83;14.48;;;0.70;99.90;;;;;;5025648;28;20492;-83
2022/01/16 04:36:09;;;;;;;30.45;13.50;;;0.70;99.90;;;;;;5024445;28;20432;-83
2022/01/16 04:38:36;;;;;;;31.95;13.68;;;0.70;99.90;;;;;;5025101;28;20395;-83
2022/01/16 04:43:52;;;;;;;27.92;12.57;;;0.70;99.90;;;;;;5025012;28;20416;-83
2022/01/16 04:46:21;;;;;;;31.75;13.07;;;0.60;99.90;;;;;;5024072;28;20400;-83
2022/01/16 04:48:47;;;;;;;29.00;12.98;;;0.60;99.90;;;;;;4993042;28;20396;-83
2022/01/16 04:51:13;;;;;;;26.33;12.30;;;0.50;99.90;;;;;;5023592;28;20895;-83
2022/01/16 04:53:40;;;;;;;28.13;13.87;;;0.50;99.90;;;;;;5025601;28;20428;-84
2022/01/16 04:56:06;;;;;;;27.98;12.80;;;0.50;99.90;;;;;;5025493;28;20390;-83
2022/01/16 04:58:33;;;;;;;32.92;13.30;;;0.50;99.90;;;;;;5024798;28;20405;-83
2022/01/16 05:00:59;;;;;;;24.42;12.30;;;0.40;99.90;;;;;;5024085;28;20438;-83
2022/01/16 05:03:27;;;;;;;25.52;12.25;;;0.40;99.90;;;;;;5023403;28;20421;-84
2022/01/16 05:05:53;;;;;;;26.10;12.25;;;0.40;99.90;;;;;;5005787;28;20873;-83
2022/01/16 05:08:18;;;;;;;25.63;12.30;;;0.40;99.90;;;;;;5023784;28;20397;-83
2022/01/16 05:10:46;;;;;;;26.70;12.27;;;0.40;99.90;;;;;;5025242;28;20370;-85
2022/01/16 05:18:45;;;;;;;23.23;12.25;;;0.40;99.90;;;;;;5015313;28;20439;-83
2022/01/16 05:21:10;;;;;;;26.08;11.77;;;0.30;99.90;;;;;;5024085;28;20798;-83
2022/01/16 05:23:36;;;;;;;25.73;12.15;;;0.30;99.90;;;;;;5023771;28;20420;-84
2022/01/16 05:26:04;;;;;;;24.13;11.87;;;0.30;99.90;;;;;;5026953;28;20453;-84
2022/01/16 05:28:29;;;;;;;27.40;12.23;;;0.30;99.90;;;;;;5026706;28;20425;-84
2022/01/16 05:30:55;;;;;;;22.87;11.80;;;0.30;99.90;;;;;;5025480;28;20397;-83
2022/01/16 05:33:21;;;;;;;26.50;12.07;;;0.30;99.90;;;;;;5028586;28;20425;-84
2022/01/16 05:35:46;;;;;;;29.10;12.83;;;0.30;99.90;;;;;;5026674;28;20400;-83
2022/01/16 05:38:12;;;;;;;32.05;13.65;;;0.30;99.90;;;;;;5028246;28;20446;-84
2022/01/16 05:40:39;;;;;;;27.05;12.75;;;0.20;99.90;;;;;;5028327;28;20401;-83
2022/01/16 05:43:05;;;;;;;25.92;12.15;;;0.20;99.90;;;;;;5026263;28;20385;-83
2022/01/16 05:45:31;;;;;;;25.98;12.48;;;0.20;99.90;;;;;;5028953;28;20402;-84
2022/01/16 05:47:56;;;;;;;26.52;11.80;;;0.20;99.90;;;;;;5028736;28;20385;-83
2022/01/16 05:50:23;;;;;;;27.27;12.43;;;0.10;99.90;;;;;;5029849;28;20418;-83
2022/01/16 05:52:49;;;;;;;25.60;12.02;;;0.10;99.90;;;;;;5028247;28;20385;-82
2022/01/16 05:55:16;;;;;;;25.47;11.00;;;0.10;99.90;;;;;;5026298;28;20558;-83
2022/01/16 05:57:42;;;;;;;27.17;13.00;;;0.00;99.90;;;;;;5026606;28;20720;-83
2022/01/16 06:00:10;;;;;;;25.70;12.48;;;0.00;99.90;;;;;;5027153;28;20467;-83
2022/01/16 06:02:36;;;;;;;24.83;11.80;;;0.00;99.90;;;;;;5026927;28;20501;-83
2022/01/16 06:05:03;;;;;;;24.60;12.50;;;0.00;99.90;;;;;;5027762;28;20476;-83
2022/01/16 06:07:28;;;;;;;26.35;12.55;;;0.00;99.90;;;;;;5027799;28;20510;-84
2022/01/16 06:09:54;;;;;;;24.87;12.43;;;0.00;99.90;;;;;;5028361;28;20542;-83
2022/01/16 06:12:20;;;;;;;28.08;12.85;;;-0.10;99.90;;;;;;5027456;28;20871;-82
2022/01/16 06:14:45;;;;;;;29.88;13.32;;;-0.10;99.90;;;;;;5026068;28;20449;-84
2022/01/16 06:17:11;;;;;;;32.50;13.52;;;-0.10;99.90;;;;;;5028083;28;20480;-81
2022/01/16 06:19:37;;;;;;;29.70;14.05;;;-0.10;99.90;;;;;;5027556;28;20402;-83
2022/01/16 06:22:02;;;;;;;28.45;13.63;;;-0.10;99.90;;;;;;5026132;28;20543;-84
2022/01/16 06:24:28;;;;;;;28.23;14.18;;;-0.10;99.90;;;;;;5025678;28;20389;-83
2022/01/16 06:26:54;;;;;;;32.00;13.95;;;-0.10;99.90;;;;;;5026416;28;20396;-83
2022/01/16 06:29:19;;;;;;;28.87;14.03;;;-0.20;99.90;;;;;;5026746;28;20397;-82
2022/01/16 06:31:45;;;;;;;22.57;13.40;;;-0.20;99.90;;;;;;5027944;28;20394;-84
2022/01/16 06:34:11;;;;;;;28.93;13.90;;;-0.20;99.90;;;;;;5027542;28;20381;-82
2022/01/16 06:36:37;;;;;;;28.40;14.02;;;-0.20;99.90;;;;;;5025876;28;20386;-83
2022/01/16 06:39:09;;;;;;;35.80;14.82;;;-0.20;99.90;;;;;;5027433;28;20396;-83
2022/01/16 06:41:35;;;;;;;32.50;16.00;;;-0.20;99.90;;;;;;5025622;28;20426;-84
2022/01/16 06:44:02;;;;;;;30.33;15.40;;;-0.20;99.90;;;;;;5025864;28;20403;-83
2022/01/16 06:46:28;;;;;;;32.78;16.60;;;-0.20;99.90;;;;;;5025848;28;20886;-84
2022/01/16 06:48:54;;;;;;;38.05;16.70;;;-0.20;99.90;;;;;;5027520;28;20392;-83
2022/01/16 06:51:21;;;;;;;39.63;18.02;;;-0.30;99.90;;;;;;5027260;28;20450;-83
2022/01/16 06:53:48;;;;;;;35.35;17.48;;;-0.30;99.90;;;;;;5010716;28;20422;-82
2022/01/16 06:56:15;;;;;;;38.20;17.30;;;-0.30;99.90;;;;;;5026198;28;20386;-83
2022/01/16 06:58:41;;;;;;;35.30;17.73;;;-0.30;99.90;;;;;;5027253;28;20392;-84
2022/01/16 07:01:07;;;;;;;34.00;17.58;;;-0.20;99.90;;;;;;5025453;28;20477;-83
2022/01/16 07:03:33;;;;;;;45.80;20.20;;;-0.20;99.90;;;;;;5025735;28;20404;-83
2022/01/16 07:06:00;;;;;;;40.15;18.20;;;-0.20;99.90;;;;;;5027020;28;20393;-82
2022/01/16 07:08:26;;;;;;;37.55;19.17;;;-0.20;99.90;;;;;;5026385;28;20432;-82
2022/01/16 07:10:57;;;;;;;35.90;19.33;;;-0.20;99.90;;;;;;5026676;28;20485;-83
2022/01/16 07:13:24;;;;;;;38.92;19.10;;;-0.20;99.90;;;;;;5027375;28;20417;-84
2022/01/16 07:15:50;;;;;;;40.20;19.85;;;-0.20;99.90;;;;;;5027943;28;20398;-85
2022/01/16 07:18:17;;;;;;;35.67;19.67;;;-0.20;99.90;;;;;;5022721;28;20477;-84
2022/01/16 07:20:44;;;;;;;36.53;20.25;;;-0.20;99.90;;;;;;5026761;28;20418;-83
2022/01/16 07:23:11;;;;;;;39.67;21.75;;;-0.20;99.90;;;;;;5025870;28;20400;-84
2022/01/16 07:25:37;;;;;;;41.67;21.98;;;-0.20;99.90;;;;;;5025265;28;20401;-83
2022/01/16 07:28:03;;;;;;;39.30;22.10;;;-0.20;99.90;;;;;;5005460;27;20398;-85
2022/01/16 07:30:29;;;;;;;47.00;23.90;;;-0.20;99.90;;;;;;5021114;28;20430;-82
2022/01/16 07:32:55;;;;;;;39.97;24.60;;;-0.20;99.90;;;;;;5024393;28;20848;-84
2022/01/16 07:35:21;;;;;;;47.87;25.70;;;-0.20;99.90;;;;;;5024727;28;20975;-82
2022/01/16 07:37:47;;;;;;;47.05;25.80;;;-0.20;99.90;;;;;;5023640;28;20759;-84
2022/01/16 07:40:14;;;;;;;53.03;26.87;;;-0.20;99.90;;;;;;5026450;28;20390;-84
2022/01/16 07:42:40;;;;;;;47.85;26.60;;;-0.20;99.90;;;;;;5024336;28;20409;-85
2022/01/16 07:45:06;;;;;;;48.33;27.10;;;-0.10;99.90;;;;;;5024325;28;20409;-84
2022/01/16 07:47:31;;;;;;;49.50;26.97;;;-0.10;99.90;;;;;;5023763;28;20397;-84
2022/01/16 07:49:58;;;;;;;49.83;26.60;;;-0.10;99.90;;;;;;5022305;28;20385;-85
2022/01/16 07:52:23;;;;;;;45.80;27.35;;;-0.10;99.90;;;;;;5026690;28;20375;-84
2022/01/16 07:54:50;;;;;;;42.33;26.73;;;-0.10;99.90;;;;;;5026697;28;20393;-85
2022/01/16 07:57:16;;;;;;;46.10;27.08;;;0.00;99.90;;;;;;5024878;28;20394;-85
2022/01/16 07:59:41;;;;;;;46.20;27.98;;;0.10;99.90;;;;;;5024884;28;20404;-84
2022/01/16 08:02:08;;;;;;;48.07;28.20;;;0.10;99.90;;;;;;5024769;28;20979;-85
2022/01/16 08:04:33;;;;;;;44.10;27.38;;;0.20;99.90;;;;;;5024048;28;20401;-84
2022/01/16 08:06:59;;;;;;;40.50;27.73;;;0.30;99.90;;;;;;5023672;28;20899;-84
2022/01/16 08:09:25;;;;;;;43.10;27.67;;;0.40;99.90;;;;;;5024722;28;20417;-84
2022/01/16 08:11:51;;;;;;;46.20;28.48;;;0.40;99.90;;;;;;5024847;28;20394;-84
2022/01/16 08:14:16;;;;;;;42.53;29.13;;;0.40;99.90;;;;;;5025287;28;20390;-83
2022/01/16 08:16:42;;;;;;;50.37;29.33;;;0.50;99.90;;;;;;5024566;28;20410;-84
2022/01/16 08:19:08;;;;;;;48.13;29.08;;;0.50;99.90;;;;;;5024214;28;20401;-84
2022/01/16 08:21:33;;;;;;;46.33;30.08;;;0.60;99.90;;;;;;5024323;28;20486;-84
2022/01/16 08:24:03;;;;;;;43.38;28.45;;;0.60;99.90;;;;;;5026337;28;20374;-85
2022/01/16 08:26:32;;;;;;;47.28;29.38;;;0.70;99.90;;;;;;5025805;28;20394;-84
2022/01/16 08:28:58;;;;;;;43.10;27.75;;;0.70;99.90;;;;;;5024531;28;20431;-84
2022/01/16 08:31:24;;;;;;;42.77;28.40;;;0.70;99.90;;;;;;5024473;28;20814;-84
2022/01/16 08:33:50;;;;;;;43.33;29.20;;;0.80;99.90;;;;;;5025668;28;20477;-85
2022/01/16 08:36:15;;;;;;;46.67;28.93;;;0.70;99.90;;;;;;5024777;28;20439;-85
2022/01/16 08:38:41;;;;;;;41.10;27.90;;;0.80;99.90;;;;;;5026230;28;20385;-85
2022/01/16 08:41:07;;;;;;;42.03;27.70;;;1.00;99.90;;;;;;5025671;28;20484;-84
2022/01/16 08:43:33;;;;;;;40.93;29.17;;;1.10;99.90;;;;;;5024902;28;20405;-84
2022/01/16 08:45:59;;;;;;;43.33;27.60;;;1.20;99.90;;;;;;5023940;28;20413;-84
2022/01/16 08:48:24;;;;;;;40.40;27.93;;;1.40;99.90;;;;;;5025455;28;20381;-82
2022/01/16 08:50:50;;;;;;;39.50;28.17;;;1.40;99.90;;;;;;5023640;28;20478;-84
2022/01/16 08:53:16;;;;;;;42.00;28.63;;;1.40;99.90;;;;;;5024174;28;20787;-83
2022/01/16 08:55:41;;;;;;;39.80;28.10;;;1.40;99.90;;;;;;5025800;28;20389;-85
2022/01/16 08:58:07;;;;;;;42.85;29.42;;;1.40;99.90;;;;;;5024225;28;20397;-83
2022/01/16 09:00:33;;;;;;;40.13;28.08;;;1.40;99.90;;;;;;5027734;28;20398;-85
2022/01/16 09:02:59;;;;;;;40.17;28.50;;;1.40;99.90;;;;;;5024696;28;20407;-82
2022/01/16 09:05:26;;;;;;;43.27;29.27;;;1.60;99.90;;;;;;5028039;28;20898;-84
2022/01/16 09:07:54;;;;;;;39.43;29.20;;;1.60;99.90;;;;;;5029835;28;20388;-83
2022/01/16 09:10:19;;;;;;;38.05;29.42;;;1.70;99.90;;;;;;5028456;28;20390;-84
2022/01/16 09:12:45;;;;;;;37.00;28.40;;;1.70;99.90;;;;;;5029908;28;20382;-84
2022/01/16 09:15:12;;;;;;;41.93;29.73;;;1.70;99.90;;;;;;5027647;28;20398;-84
2022/01/16 09:17:39;;;;;;;45.88;31.45;;;1.70;99.90;;;;;;5027355;28;20412;-82
2022/01/16 09:20:17;;;;;;;39.57;31.00;;;1.70;99.90;;;;;;5033803;28;20446;-85
2022/01/16 09:22:44;;;;;;;44.67;32.60;;;1.70;99.90;;;;;;5032780;28;20475;-83
2022/01/16 09:25:14;;;;;;;41.08;32.67;;;1.70;99.90;;;;;;5035602;28;20374;-83
2022/01/16 09:27:41;;;;;;;46.67;36.20;;;1.80;99.90;;;;;;5034093;28;20397;-82
2022/01/16 09:30:10;;;;;;;46.92;36.50;;;1.90;99.90;;;;;;5012185;28;20396;-85
2022/01/16 09:32:36;;;;;;;47.45;38.63;;;1.90;99.90;;;;;;5017514;28;20436;-84
2022/01/16 09:35:05;;;;;;;48.60;39.35;;;1.90;99.90;;;;;;5035216;28;20397;-83
2022/01/16 09:37:31;;;;;;;51.30;40.85;;;1.90;99.90;;;;;;5037093;28;20374;-85
2022/01/16 09:39:58;;;;;;;52.85;42.08;;;1.90;99.90;;;;;;5037121;28;20507;-83
2022/01/16 09:42:24;;;;;;;52.47;43.35;;;1.90;99.90;;;;;;5031039;28;20462;-84
2022/01/16 09:44:51;;;;;;;56.17;43.67;;;1.80;99.90;;;;;;5032461;28;20398;-83
2022/01/16 09:47:17;;;;;;;56.28;43.80;;;1.80;99.90;;;;;;5029945;28;20393;-85
2022/01/16 09:49:44;;;;;;;57.00;44.78;;;1.90;99.90;;;;;;5034115;28;20378;-84
2022/01/16 09:52:13;;;;;;;60.10;45.85;;;1.70;99.90;;;;;;5032943;28;20381;-86
2022/01/16 09:54:39;;;;;;;56.30;44.30;;;1.80;99.90;;;;;;5035520;28;20404;-84
2022/01/16 09:57:06;;;;;;;56.10;43.70;;;1.80;99.90;;;;;;5034383;28;20390;-85
2022/01/16 09:59:34;;;;;;;54.85;45.50;;;2.00;99.90;;;;;;5031433;28;20385;-85
2022/01/16 10:02:14;;;;;;;56.05;44.65;;;2.00;99.90;;;;;;5033292;28;20917;-84
2022/01/16 10:04:42;;;;;;;52.83;44.03;;;2.00;99.90;;;;;;5033268;28;20408;-84
2022/01/16 10:07:19;;;;;;;54.07;44.30;;;2.00;99.90;;;;;;5034543;28;20492;-85
2022/01/16 10:10:03;;;;;;;54.92;42.97;;;2.00;99.90;;;;;;5031144;28;20462;-82
2022/01/16 10:12:30;;;;;;;54.45;43.00;;;2.10;99.90;;;;;;5031924;28;20381;-84
2022/01/16 10:14:56;;;;;;;50.03;40.70;;;2.00;99.90;;;;;;5030740;28;20405;-84
2022/01/16 10:17:24;;;;;;;51.75;40.33;;;2.00;99.90;;;;;;5029076;27;20751;-83
2022/01/16 10:20:07;;;;;;;52.42;40.15;;;2.00;99.90;;;;;;5026259;28;20813;-85
2022/01/16 10:22:50;;;;;;;54.42;40.38;;;2.00;99.90;;;;;;5027230;28;20402;-84
2022/01/16 10:25:34;;;;;;;54.35;41.70;;;2.10;99.90;;;;;;5024675;28;20504;-83
2022/01/16 10:28:04;;;;;;;53.75;40.20;;;2.10;99.90;;;;;;5024403;28;20401;-85
2022/01/16 10:30:45;;;;;;;54.33;39.90;;;2.20;99.90;;;;;;5023977;28;20939;-85
2022/01/16 10:33:16;;;;;;;59.80;42.47;;;2.10;99.90;;;;;;5026126;28;20397;-83
2022/01/16 10:35:44;;;;;;;60.78;43.95;;;2.10;99.90;;;;;;5026743;28;20416;-84
2022/01/16 10:38:30;;;;;;;61.53;43.75;;;2.10;99.90;;;;;;5026400;28;20386;-83
2022/01/16 10:40:59;;;;;;;56.38;42.90;;;2.10;99.90;;;;;;5026925;28;20414;-84
2022/01/16 10:43:44;;;;;;;59.67;42.95;;;2.20;99.90;;;;;;5026071;28;20393;-83
2022/01/16 10:46:12;;;;;;;56.58;42.25;;;2.30;99.90;;;;;;5027338;28;20390;-83
2022/01/16 10:48:38;;;;;;;55.15;41.90;;;2.40;99.90;;;;;;5026392;28;20386;-84
2022/01/16 10:51:17;;;;;;;57.60;40.95;;;2.40;99.90;;;;;;5026691;28;20390;-85
2022/01/16 10:53:42;;;;;;;55.45;41.50;;;2.40;99.90;;;;;;5027081;28;20397;-84
2022/01/16 10:56:08;;;;;;;55.83;41.00;;;2.50;99.90;;;;;;5026063;28;20382;-84
2022/01/16 10:58:38;;;;;;;52.83;40.63;;;2.60;99.90;;;;;;5025794;28;20861;-84
2022/01/16 11:01:13;;;;;;;53.30;40.20;;;2.50;99.90;;;;;;5027320;28;20406;-84
2022/01/16 11:03:46;;;;;;;51.00;39.40;;;2.60;99.90;;;;;;5027377;28;20887;-84
2022/01/16 11:06:13;;;;;;;49.10;38.95;;;2.60;99.90;;;;;;5026247;28;20389;-83
2022/01/16 11:08:39;;;;;;;51.50;39.67;;;2.60;99.90;;;;;;5026455;28;20394;-83
2022/01/16 11:11:07;;;;;;;52.40;39.28;;;2.60;99.90;;;;;;5025979;28;20405;-83
2022/01/16 11:13:36;;;;;;;51.83;39.17;;;2.60;99.90;;;;;;5025865;28;20386;-83
2022/01/16 11:16:04;;;;;;;50.60;39.13;;;2.60;99.90;;;;;;5027049;28;20393;-83
2022/01/16 11:18:35;;;;;;;51.42;39.10;;;2.70;99.90;;;;;;5026294;28;20410;-83
2022/01/16 11:23:47;;;;;;;50.67;38.45;;;2.80;99.90;;;;;;5026947;28;20447;-84
2022/01/16 11:26:15;;;;;;;44.95;35.97;;;2.90;99.90;;;;;;5025290;28;20489;-84
2022/01/16 11:28:41;;;;;;;45.13;36.87;;;2.90;99.90;;;;;;5025830;28;20438;-84
2022/01/16 11:31:10;;;;;;;45.60;36.40;;;3.00;99.90;;;;;;5025450;28;20780;-85
2022/01/16 11:33:37;;;;;;;44.10;36.22;;;3.00;99.90;;;;;;5026671;28;20400;-84
2022/01/16 11:36:19;;;;;;;40.75;34.70;;;3.10;99.90;;;;;;5027135;28;20998;-82
2022/01/16 11:38:49;;;;;;;42.88;33.95;;;3.10;99.90;;;;;;5024910;28;20590;-84
2022/01/16 11:41:18;;;;;;;41.75;33.78;;;3.20;99.90;;;;;;5025904;28;20767;-83
2022/01/16 11:43:48;;;;;;;42.72;35.42;;;3.20;99.90;;;;;;5026271;28;20873;-84
2022/01/16 11:46:22;;;;;;;50.13;42.92;;;3.20;99.90;;;;;;5027520;28;20434;-84
2022/01/16 11:48:53;;;;;;;49.50;41.23;;;3.20;99.90;;;;;;5029097;28;20404;-83
2022/01/16 11:51:39;;;;;;;49.05;39.22;;;3.20;99.90;;;;;;5028188;28;20386;-84
2022/01/16 11:54:35;;;;;;;45.78;38.28;;;3.30;99.90;;;;;;5025508;28;20400;-85
2022/01/16 11:57:18;;;;;;;47.08;38.72;;;3.30;99.90;;;;;;5025930;28;20892;-83
2022/01/16 11:59:44;;;;;;;46.78;39.63;;;3.30;99.90;;;;;;5005510;28;20395;-85
2022/01/16 12:02:10;;;;;;;46.13;37.83;;;3.30;99.90;;;;;;5024463;28;20401;-84
2022/01/16 12:04:38;;;;;;;45.13;36.67;;;3.30;99.90;;;;;;5025953;28;20408;-85
2022/01/16 12:07:13;;;;;;;42.00;34.33;;;3.30;99.90;;;;;;5024810;28;20392;-84
2022/01/16 12:09:48;;;;;;;42.85;33.80;;;3.30;99.90;;;;;;5025176;28;20421;-85
2022/01/16 12:12:16;;;;;;;43.25;34.65;;;3.40;99.90;;;;;;5026994;28;20514;-84
2022/01/16 12:15:03;;;;;;;43.88;34.88;;;3.50;99.90;;;;;;5026023;28;20457;-83
2022/01/16 12:17:33;;;;;;;43.83;34.67;;;3.50;99.90;;;;;;5025483;28;20959;-85
2022/01/16 12:20:13;;;;;;;42.53;33.83;;;3.50;99.90;;;;;;5026911;28;20399;-84
2022/01/16 12:23:03;;;;;;;44.58;34.20;;;3.40;99.90;;;;;;5026394;28;20534;-83
2022/01/16 12:25:39;;;;;;;48.35;35.47;;;3.50;99.90;;;;;;5025790;28;20873;-86
2022/01/16 12:28:06;;;;;;;48.70;34.80;;;3.50;99.90;;;;;;5024878;28;20398;-84
2022/01/16 12:30:59;;;;;;;45.72;34.00;;;3.50;99.90;;;;;;5025042;28;20484;-84
2022/01/16 12:33:48;;;;;;;50.17;34.53;;;3.60;99.90;;;;;;5026787;28;20420;-85
2022/01/16 12:36:18;;;;;;;46.47;34.10;;;3.60;99.90;;;;;;5026630;28;20859;-84
2022/01/16 12:38:53;;;;;;;51.88;36.33;;;3.60;99.90;;;;;;5025191;28;20381;-85
2022/01/16 12:41:26;;;;;;;50.30;36.97;;;3.60;99.90;;;;;;5022832;28;20459;-83
2022/01/16 12:44:00;;;;;;;51.53;37.05;;;3.70;99.90;;;;;;5024516;28;20481;-84
2022/01/16 12:46:40;;;;;;;50.60;37.40;;;3.70;99.90;;;;;;5025146;28;20408;-84
2022/01/16 12:49:10;;;;;;;53.92;38.53;;;3.80;99.90;;;;;;5025508;28;20450;-82
2022/01/16 12:51:38;;;;;;;53.78;38.65;;;3.70;99.90;;;;;;5024360;28;20390;-83
2022/01/16 12:54:05;;;;;;;58.75;41.03;;;3.70;99.90;;;;;;5027018;28;20732;-83
2022/01/16 12:56:34;;;;;;;57.55;42.00;;;3.70;99.90;;;;;;5026837;28;20392;-83
2022/01/16 12:59:05;;;;;;;53.47;40.35;;;3.80;99.90;;;;;;5024004;28;20386;-84
2022/01/16 13:01:32;;;;;;;54.83;40.60;;;3.80;99.90;;;;;;5023052;28;20410;-84
2022/01/16 13:03:58;;;;;;;52.88;40.95;;;3.80;99.90;;;;;;5024857;28;20398;-85
2022/01/16 13:06:34;;;;;;;51.50;38.77;;;3.80;99.90;;;;;;5024735;28;20381;-82
2022/01/16 13:09:08;;;;;;;53.28;40.70;;;3.90;99.90;;;;;;5022742;28;20426;-88
2022/01/16 13:11:36;;;;;;;55.28;41.22;;;3.90;99.90;;;;;;5019297;28;20425;-83
2022/01/16 13:14:04;;;;;;;59.75;42.72;;;3.80;99.90;;;;;;5024185;28;20405;-82
2022/01/16 13:16:33;;;;;;;56.03;42.13;;;3.80;99.90;;;;;;5022575;28;20737;-83
2022/01/16 13:19:12;;;;;;;60.30;43.53;;;3.80;99.90;;;;;;5023997;28;20393;-83
2022/01/16 13:22:11;;;;;;;62.65;44.55;;;3.80;99.90;;;;;;5022682;28;20459;-83
2022/01/16 13:24:55;;;;;;;65.18;46.58;;;3.80;99.90;;;;;;5020906;28;20476;-83
2022/01/16 13:27:31;;;;;;;66.63;47.90;;;3.80;99.90;;;;;;5019156;28;20472;-83
2022/01/16 13:30:05;;;;;;;68.72;49.75;;;3.80;99.90;;;;;;5022960;28;20401;-86